sensor_id;sensor_type;location;lat;lon;timestamp;pressure;altitude;pressure_sealevel;temperature;humidity
72110;BME280;59983;52.010;5.420;2023-01-09T00:00:52;99394.41;;;6.93;100.00
72110;BME280;59983;52.010;5.420;2023-01-09T00:03:19;99405.91;;;6.90;100.00
72110;BME280;59983;52.010;5.420;2023-01-09T00:05:46;99403.84;;;6.83;100.00
72110;BME280;59983;52.010;5.420;2023-01-09T00:08:12;99398.81;;;6.81;100.00
72110;BME280;59983;52.010;5.420;2023-01-09T00:10:39;99402.19;;;6.78;100.00
72110;BME280;59983;52.010;5.420;2023-01-09T00:13:05;99394.13;;;6.78;100.00
72110;BME280;59983;52.010;5.420;2023-01-09T00:15:32;99390.63;;;6.78;100.00
72110;BME280;59983;52.010;5.420;2023-01-09T00:17:59;99396.31;;;6.73;100.00
72110;BME280;59983;52.010;5.420;2023-01-09T00:20:25;99407.44;;;6.71;100.00
72110;BME280;59983;52.010;5.420;2023-01-09T00:22:52;99406.53;;;6.64;100.00
72110;BME280;59983;52.010;5.420;2023-01-09T00:25:18;99402.97;;;6.60;100.00
72110;BME280;59983;52.010;5.420;2023-01-09T00:27:44;99404.81;;;6.56;100.00
72110;BME280;59983;52.010;5.420;2023-01-09T00:30:11;99399.34;;;6.52;100.00
72110;BME280;59983;52.010;5.420;2023-01-09T00:32:39;99412.03;;;6.51;100.00
72110;BME280;59983;52.010;5.420;2023-01-09T00:35:08;99405.72;;;6.44;100.00
72110;BME280;59983;52.010;5.420;2023-01-09T00:37:35;99404.44;;;6.38;100.00
72110;BME280;59983;52.010;5.420;2023-01-09T00:40:01;99400.53;;;6.35;100.00
72110;BME280;59983;52.010;5.420;2023-01-09T00:42:29;99397.41;;;6.33;100.00
72110;BME280;59983;52.010;5.420;2023-01-09T00:45:01;99402.72;;;6.30;100.00
72110;BME280;59983;52.010;5.420;2023-01-09T00:47:32;99402.19;;;6.24;100.00
72110;BME280;59983;52.010;5.420;2023-01-09T00:50:07;99405.25;;;6.22;100.00
72110;BME280;59983;52.010;5.420;2023-01-09T00:52:36;99407.09;;;6.18;100.00
72110;BME280;59983;52.010;5.420;2023-01-09T00:55:04;99408.91;;;6.14;100.00
72110;BME280;59983;52.010;5.420;2023-01-09T00:57:32;99415.00;;;6.11;100.00
72110;BME280;59983;52.010;5.420;2023-01-09T00:59:58;99416.56;;;6.12;100.00
72110;BME280;59983;52.010;5.420;2023-01-09T01:02:25;99416.22;;;6.14;100.00
72110;BME280;59983;52.010;5.420;2023-01-09T01:04:52;99417.25;;;6.09;100.00
72110;BME280;59983;52.010;5.420;2023-01-09T01:07:38;99419.50;;;6.07;100.00
72110;BME280;59983;52.010;5.420;2023-01-09T01:10:07;99423.69;;;6.05;100.00
72110;BME280;59983;52.010;5.420;2023-01-09T01:12:36;99423.25;;;6.03;100.00
72110;BME280;59983;52.010;5.420;2023-01-09T01:15:04;99420.94;;;6.01;100.00
72110;BME280;59983;52.010;5.420;2023-01-09T01:17:36;99406.16;;;5.95;100.00
72110;BME280;59983;52.010;5.420;2023-01-09T01:20:06;99408.06;;;5.94;100.00
72110;BME280;59983;52.010;5.420;2023-01-09T01:22:33;99410.00;;;5.94;100.00
72110;BME280;59983;52.010;5.420;2023-01-09T01:24:59;99411.44;;;5.91;100.00
72110;BME280;59983;52.010;5.420;2023-01-09T01:27:27;99414.81;;;5.88;100.00
72110;BME280;59983;52.010;5.420;2023-01-09T01:29:53;99412.56;;;5.90;100.00
72110;BME280;59983;52.010;5.420;2023-01-09T01:32:20;99412.91;;;5.89;100.00
72110;BME280;59983;52.010;5.420;2023-01-09T01:34:46;99416.28;;;5.86;100.00
72110;BME280;59983;52.010;5.420;2023-01-09T01:37:13;99418.63;;;5.87;100.00
72110;BME280;59983;52.010;5.420;2023-01-09T01:39:40;99422.47;;;5.86;100.00
72110;BME280;59983;52.010;5.420;2023-01-09T01:42:07;99432.00;;;5.84;100.00
72110;BME280;59983;52.010;5.420;2023-01-09T01:47:27;99427.66;;;5.79;100.00
72110;BME280;59983;52.010;5.420;2023-01-09T01:49:55;99434.59;;;5.80;100.00
72110;BME280;59983;52.010;5.420;2023-01-09T01:52:22;99431.06;;;5.76;100.00
72110;BME280;59983;52.010;5.420;2023-01-09T01:54:50;99436.78;;;5.75;100.00
72110;BME280;59983;52.010;5.420;2023-01-09T01:57:17;99431.72;;;5.73;100.00
72110;BME280;59983;52.010;5.420;2023-01-09T01:59:51;99427.47;;;5.72;100.00
72110;BME280;59983;52.010;5.420;2023-01-09T02:02:22;99437.03;;;5.69;100.00
72110;BME280;59983;52.010;5.420;2023-01-09T02:04:52;99450.41;;;5.66;100.00
72110;BME280;59983;52.010;5.420;2023-01-09T02:07:21;99440.50;;;5.70;100.00
72110;BME280;59983;52.010;5.420;2023-01-09T02:09:47;99442.50;;;5.73;100.00
72110;BME280;59983;52.010;5.420;2023-01-09T02:12:16;99456.81;;;5.77;100.00
72110;BME280;59983;52.010;5.420;2023-01-09T02:14:45;99446.56;;;5.83;100.00
72110;BME280;59983;52.010;5.420;2023-01-09T02:23:41;99440.16;;;5.87;100.00
72110;BME280;59983;52.010;5.420;2023-01-09T02:26:28;99452.84;;;5.87;100.00
72110;BME280;59983;52.010;5.420;2023-01-09T02:32:17;99441.19;;;5.83;100.00
72110;BME280;59983;52.010;5.420;2023-01-09T02:40:45;99448.22;;;5.72;100.00
72110;BME280;59983;52.010;5.420;2023-01-09T02:43:13;99451.25;;;5.70;100.00
72110;BME280;59983;52.010;5.420;2023-01-09T02:45:39;99450.06;;;5.67;100.00
72110;BME280;59983;52.010;5.420;2023-01-09T02:48:09;99453.41;;;5.64;100.00
72110;BME280;59983;52.010;5.420;2023-01-09T02:53:33;99458.97;;;5.56;100.00
72110;BME280;59983;52.010;5.420;2023-01-09T02:56:32;99457.03;;;5.56;100.00
72110;BME280;59983;52.010;5.420;2023-01-09T02:59:27;99451.66;;;5.56;100.00
72110;BME280;59983;52.010;5.420;2023-01-09T03:02:19;99452.47;;;5.57;100.00
72110;BME280;59983;52.010;5.420;2023-01-09T03:07:57;99447.78;;;5.54;100.00
72110;BME280;59983;52.010;5.420;2023-01-09T03:10:39;99449.59;;;5.50;100.00
72110;BME280;59983;52.010;5.420;2023-01-09T03:13:09;99451.03;;;5.47;100.00
72110;BME280;59983;52.010;5.420;2023-01-09T03:15:39;99443.31;;;5.46;100.00
72110;BME280;59983;52.010;5.420;2023-01-09T03:18:09;99442.47;;;5.42;100.00
72110;BME280;59983;52.010;5.420;2023-01-09T03:20:36;99442.81;;;5.40;100.00
72110;BME280;59983;52.010;5.420;2023-01-09T03:23:05;99433.97;;;5.39;100.00
72110;BME280;59983;52.010;5.420;2023-01-09T03:25:32;99433.09;;;5.35;100.00
72110;BME280;59983;52.010;5.420;2023-01-09T03:28:04;99434.63;;;5.36;100.00
72110;BME280;59983;52.010;5.420;2023-01-09T03:30:33;99428.13;;;5.37;100.00
72110;BME280;59983;52.010;5.420;2023-01-09T03:33:00;99431.59;;;5.38;100.00
72110;BME280;59983;52.010;5.420;2023-01-09T03:35:27;99428.91;;;5.38;100.00
72110;BME280;59983;52.010;5.420;2023-01-09T03:37:53;99425.72;;;5.32;100.00
72110;BME280;59983;52.010;5.420;2023-01-09T03:40:21;99414.84;;;5.29;100.00
72110;BME280;59983;52.010;5.420;2023-01-09T03:42:47;99427.84;;;5.27;100.00
72110;BME280;59983;52.010;5.420;2023-01-09T03:45:14;99432.81;;;5.25;100.00
72110;BME280;59983;52.010;5.420;2023-01-09T03:47:41;99427.78;;;5.23;100.00
72110;BME280;59983;52.010;5.420;2023-01-09T03:50:08;99436.19;;;5.22;100.00
72110;BME280;59983;52.010;5.420;2023-01-09T03:52:34;99438.09;;;5.21;100.00
72110;BME280;59983;52.010;5.420;2023-01-09T03:55:01;99437.19;;;5.17;100.00
72110;BME280;59983;52.010;5.420;2023-01-09T03:57:28;99433.31;;;5.15;100.00
72110;BME280;59983;52.010;5.420;2023-01-09T03:59:54;99434.88;;;5.16;100.00
72110;BME280;59983;52.010;5.420;2023-01-09T04:02:21;99444.06;;;5.15;100.00
72110;BME280;59983;52.010;5.420;2023-01-09T04:04:47;99449.78;;;5.13;100.00
72110;BME280;59983;52.010;5.420;2023-01-09T04:07:14;99442.72;;;5.08;100.00
72110;BME280;59983;52.010;5.420;2023-01-09T04:09:40;99449.56;;;5.06;100.00
72110;BME280;59983;52.010;5.420;2023-01-09T04:12:07;99439.59;;;5.06;100.00
72110;BME280;59983;52.010;5.420;2023-01-09T04:14:33;99442.38;;;5.10;100.00
72110;BME280;59983;52.010;5.420;2023-01-09T04:17:00;99441.16;;;5.07;100.00
72110;BME280;59983;52.010;5.420;2023-01-09T04:19:26;99448.78;;;5.05;100.00
72110;BME280;59983;52.010;5.420;2023-01-09T04:21:53;99451.81;;;5.04;100.00
72110;BME280;59983;52.010;5.420;2023-01-09T04:24:19;99443.41;;;5.05;100.00
72110;BME280;59983;52.010;5.420;2023-01-09T04:26:46;99434.66;;;5.08;100.00
72110;BME280;59983;52.010;5.420;2023-01-09T04:29:12;99435.44;;;5.09;100.00
72110;BME280;59983;52.010;5.420;2023-01-09T04:31:39;99439.47;;;5.15;100.00
72110;BME280;59983;52.010;5.420;2023-01-09T04:34:05;99446.81;;;5.18;100.00
72110;BME280;59983;52.010;5.420;2023-01-09T04:36:32;99453.31;;;5.17;100.00
72110;BME280;59983;52.010;5.420;2023-01-09T04:39:02;99453.75;;;5.19;100.00
72110;BME280;59983;52.010;5.420;2023-01-09T04:41:28;99451.53;;;5.21;100.00
72110;BME280;59983;52.010;5.420;2023-01-09T04:44:17;99455.88;;;5.26;100.00
72110;BME280;59983;52.010;5.420;2023-01-09T04:46:44;99449.03;;;5.28;100.00
72110;BME280;59983;52.010;5.420;2023-01-09T04:49:11;99443.06;;;5.35;100.00
72110;BME280;59983;52.010;5.420;2023-01-09T04:51:37;99451.19;;;5.38;100.00
72110;BME280;59983;52.010;5.420;2023-01-09T04:54:04;99446.94;;;5.37;100.00
72110;BME280;59983;52.010;5.420;2023-01-09T04:56:31;99452.00;;;5.39;100.00
72110;BME280;59983;52.010;5.420;2023-01-09T04:58:57;99455.13;;;5.41;100.00
72110;BME280;59983;52.010;5.420;2023-01-09T05:01:24;99450.88;;;5.40;100.00
72110;BME280;59983;52.010;5.420;2023-01-09T05:03:50;99453.31;;;5.45;100.00
72110;BME280;59983;52.010;5.420;2023-01-09T05:06:17;99446.38;;;5.44;100.00
72110;BME280;59983;52.010;5.420;2023-01-09T05:08:44;99440.28;;;5.47;100.00
72110;BME280;59983;52.010;5.420;2023-01-09T05:11:11;99439.50;;;5.47;100.00
72110;BME280;59983;52.010;5.420;2023-01-09T05:13:37;99444.56;;;5.48;100.00
72110;BME280;59983;52.010;5.420;2023-01-09T05:16:04;99437.72;;;5.51;100.00
72110;BME280;59983;52.010;5.420;2023-01-09T05:18:31;99436.16;;;5.50;100.00
72110;BME280;59983;52.010;5.420;2023-01-09T05:20:57;99438.91;;;5.53;100.00
72110;BME280;59983;52.010;5.420;2023-01-09T05:23:24;99437.44;;;5.56;100.00
72110;BME280;59983;52.010;5.420;2023-01-09T05:25:50;99436.00;;;5.58;100.00
72110;BME280;59983;52.010;5.420;2023-01-09T05:28:16;99430.59;;;5.58;100.00
72110;BME280;59983;52.010;5.420;2023-01-09T05:30:43;99429.06;;;5.57;100.00
72110;BME280;59983;52.010;5.420;2023-01-09T05:33:09;99427.47;;;5.56;100.00
72110;BME280;59983;52.010;5.420;2023-01-09T05:35:36;99426.78;;;5.59;100.00
72110;BME280;59983;52.010;5.420;2023-01-09T05:38:02;99416.88;;;5.63;100.00
72110;BME280;59983;52.010;5.420;2023-01-09T05:40:29;99426.44;;;5.61;100.00
72110;BME280;59983;52.010;5.420;2023-01-09T05:43:05;99426.78;;;5.59;100.00
72110;BME280;59983;52.010;5.420;2023-01-09T05:45:32;99426.09;;;5.62;100.00
72110;BME280;59983;52.010;5.420;2023-01-09T05:47:58;99412.28;;;5.64;100.00
72110;BME280;59983;52.010;5.420;2023-01-09T05:50:25;99408.47;;;5.65;100.00
72110;BME280;59983;52.010;5.420;2023-01-09T05:52:52;99419.69;;;5.67;100.00
72110;BME280;59983;52.010;5.420;2023-01-09T05:55:18;99409.78;;;5.71;100.00
72110;BME280;59983;52.010;5.420;2023-01-09T05:57:45;99402.91;;;5.74;100.00
72110;BME280;59983;52.010;5.420;2023-01-09T06:00:12;99401.47;;;5.76;100.00
72110;BME280;59983;52.010;5.420;2023-01-09T06:02:39;99403.81;;;5.78;100.00
72110;BME280;59983;52.010;5.420;2023-01-09T06:05:06;99411.50;;;5.79;100.00
72110;BME280;59983;52.010;5.420;2023-01-09T06:07:33;99410.81;;;5.82;100.00
72110;BME280;59983;52.010;5.420;2023-01-09T06:10:01;99399.72;;;5.84;100.00
72110;BME280;59983;52.010;5.420;2023-01-09T06:12:29;99410.13;;;5.85;100.00
72110;BME280;59983;52.010;5.420;2023-01-09T06:14:55;99402.13;;;5.89;100.00
72110;BME280;59983;52.010;5.420;2023-01-09T06:17:21;99399.91;;;5.91;100.00
72110;BME280;59983;52.010;5.420;2023-01-09T06:19:48;99394.19;;;5.92;100.00
72110;BME280;59983;52.010;5.420;2023-01-09T06:22:16;99393.41;;;5.92;100.00
72110;BME280;59983;52.010;5.420;2023-01-09T06:24:43;99392.72;;;5.95;100.00
72110;BME280;59983;52.010;5.420;2023-01-09T06:27:09;99392.00;;;5.98;100.00
72110;BME280;59983;52.010;5.420;2023-01-09T06:29:39;99382.44;;;6.01;100.00
72110;BME280;59983;52.010;5.420;2023-01-09T06:32:05;99389.84;;;6.04;100.00
72110;BME280;59983;52.010;5.420;2023-01-09T06:34:32;99391.81;;;6.07;100.00
72110;BME280;59983;52.010;5.420;2023-01-09T06:36:58;99390.00;;;6.11;100.00
72110;BME280;59983;52.010;5.420;2023-01-09T06:39:25;99387.63;;;6.09;100.00
72110;BME280;59983;52.010;5.420;2023-01-09T06:41:51;99397.38;;;6.14;100.00
72110;BME280;59983;52.010;5.420;2023-01-09T06:44:18;99400.47;;;6.16;100.00
72110;BME280;59983;52.010;5.420;2023-01-09T06:46:44;99391.38;;;6.20;100.00
72110;BME280;59983;52.010;5.420;2023-01-09T06:49:11;99397.53;;;6.21;100.00
72110;BME280;59983;52.010;5.420;2023-01-09T06:51:37;99402.56;;;6.22;100.00
72110;BME280;59983;52.010;5.420;2023-01-09T06:54:04;99411.06;;;6.24;100.00
72110;BME280;59983;52.010;5.420;2023-01-09T06:56:31;99412.19;;;6.23;100.00
72110;BME280;59983;52.010;5.420;2023-01-09T06:58:57;99408.72;;;6.23;100.00
72110;BME280;59983;52.010;5.420;2023-01-09T07:01:24;99411.41;;;6.23;100.00
72110;BME280;59983;52.010;5.420;2023-01-09T07:03:50;99402.97;;;6.24;100.00
72110;BME280;59983;52.010;5.420;2023-01-09T07:06:17;99406.44;;;6.25;100.00
72110;BME280;59983;52.010;5.420;2023-01-09T07:08:45;99408.78;;;6.27;100.00
72110;BME280;59983;52.010;5.420;2023-01-09T07:11:13;99407.22;;;6.25;100.00
72110;BME280;59983;52.010;5.420;2023-01-09T07:13:39;99405.25;;;6.22;100.00
72110;BME280;59983;52.010;5.420;2023-01-09T07:16:06;99389.09;;;6.22;100.00
72110;BME280;59983;52.010;5.420;2023-01-09T07:18:33;99388.69;;;6.20;100.00
72110;BME280;59983;52.010;5.420;2023-01-09T07:20:59;99404.81;;;6.20;100.00
72110;BME280;59983;52.010;5.420;2023-01-09T07:23:26;99409.78;;;6.18;100.00
72110;BME280;59983;52.010;5.420;2023-01-09T07:25:52;99402.50;;;6.19;100.00
72110;BME280;59983;52.010;5.420;2023-01-09T07:28:19;99407.00;;;6.15;100.00
72110;BME280;59983;52.010;5.420;2023-01-09T07:30:45;99412.03;;;6.16;100.00
72110;BME280;59983;52.010;5.420;2023-01-09T07:33:12;99410.47;;;6.15;100.00
72110;BME280;59983;52.010;5.420;2023-01-09T07:35:38;99418.19;;;6.17;100.00
72110;BME280;59983;52.010;5.420;2023-01-09T07:38:05;99411.25;;;6.16;100.00
72110;BME280;59983;52.010;5.420;2023-01-09T07:40:32;99422.78;;;6.16;100.00
72110;BME280;59983;52.010;5.420;2023-01-09T07:42:58;99416.63;;;6.16;100.00
72110;BME280;59983;52.010;5.420;2023-01-09T07:45:24;99429.66;;;6.14;100.00
72110;BME280;59983;52.010;5.420;2023-01-09T07:47:51;99440.44;;;6.14;100.00
72110;BME280;59983;52.010;5.420;2023-01-09T07:50:18;99445.03;;;6.13;100.00
72110;BME280;59983;52.010;5.420;2023-01-09T07:52:45;99465.44;;;6.14;100.00
72110;BME280;59983;52.010;5.420;2023-01-09T07:55:12;99454.25;;;6.12;100.00
72110;BME280;59983;52.010;5.420;2023-01-09T07:57:41;99454.94;;;6.09;100.00
72110;BME280;59983;52.010;5.420;2023-01-09T08:00:08;99449.81;;;6.04;100.00
72110;BME280;59983;52.010;5.420;2023-01-09T08:02:36;99449.28;;;5.99;100.00
72110;BME280;59983;52.010;5.420;2023-01-09T08:05:03;99451.91;;;5.95;100.00
72110;BME280;59983;52.010;5.420;2023-01-09T08:07:29;99465.38;;;5.95;100.00
72110;BME280;59983;52.010;5.420;2023-01-09T08:09:56;99462.25;;;5.93;100.00
72110;BME280;59983;52.010;5.420;2023-01-09T08:12:22;99454.19;;;5.93;100.00
72110;BME280;59983;52.010;5.420;2023-01-09T08:14:49;99486.78;;;5.91;100.00
72110;BME280;59983;52.010;5.420;2023-01-09T08:17:16;99475.00;;;5.96;100.00
72110;BME280;59983;52.010;5.420;2023-01-09T08:19:43;99476.22;;;5.99;100.00
72110;BME280;59983;52.010;5.420;2023-01-09T08:22:09;99482.81;;;6.01;100.00
72110;BME280;59983;52.010;5.420;2023-01-09T08:24:36;99475.06;;;6.00;100.00
72110;BME280;59983;52.010;5.420;2023-01-09T08:27:02;99471.72;;;6.03;100.00
72110;BME280;59983;52.010;5.420;2023-01-09T08:29:29;99480.56;;;6.03;100.00
72110;BME280;59983;52.010;5.420;2023-01-09T08:31:55;99469.78;;;6.03;100.00
72110;BME280;59983;52.010;5.420;2023-01-09T08:34:22;99489.84;;;6.06;100.00
72110;BME280;59983;52.010;5.420;2023-01-09T08:36:48;99496.00;;;6.06;100.00
72110;BME280;59983;52.010;5.420;2023-01-09T08:39:15;99510.34;;;6.10;100.00
72110;BME280;59983;52.010;5.420;2023-01-09T08:41:41;99510.34;;;6.10;100.00
72110;BME280;59983;52.010;5.420;2023-01-09T08:44:26;99515.38;;;6.12;100.00
72110;BME280;59983;52.010;5.420;2023-01-09T08:47:14;99505.75;;;6.11;100.00
72110;BME280;59983;52.010;5.420;2023-01-09T08:49:40;99520.41;;;6.13;100.00
72110;BME280;59983;52.010;5.420;2023-01-09T08:52:07;99523.88;;;6.14;100.00
72110;BME280;59983;52.010;5.420;2023-01-09T08:54:34;99540.81;;;6.14;100.00
72110;BME280;59983;52.010;5.420;2023-01-09T08:57:05;99532.75;;;6.14;100.00
72110;BME280;59983;52.010;5.420;2023-01-09T08:59:32;99540.13;;;6.17;100.00
72110;BME280;59983;52.010;5.420;2023-01-09T09:01:59;99545.19;;;6.19;100.00
72110;BME280;59983;52.010;5.420;2023-01-09T09:04:25;99545.19;;;6.19;100.00
72110;BME280;59983;52.010;5.420;2023-01-09T09:06:52;99561.06;;;6.24;100.00
72110;BME280;59983;52.010;5.420;2023-01-09T09:09:18;99560.34;;;6.27;100.00
72110;BME280;59983;52.010;5.420;2023-01-09T09:11:45;99558.97;;;6.33;100.00
72110;BME280;59983;52.010;5.420;2023-01-09T09:14:11;99563.69;;;6.36;100.00
72110;BME280;59983;52.010;5.420;2023-01-09T09:16:56;99566.81;;;6.38;100.00
72110;BME280;59983;52.010;5.420;2023-01-09T09:19:23;99591.47;;;6.40;100.00
72110;BME280;59983;52.010;5.420;2023-01-09T09:21:49;99590.34;;;6.41;100.00
72110;BME280;59983;52.010;5.420;2023-01-09T09:24:16;99592.31;;;6.44;100.00
72110;BME280;59983;52.010;5.420;2023-01-09T09:26:42;99593.13;;;6.45;100.00
72110;BME280;59983;52.010;5.420;2023-01-09T09:29:10;99593.56;;;6.47;100.00
72110;BME280;59983;52.010;5.420;2023-01-09T09:31:37;99604.06;;;6.52;100.00
72110;BME280;59983;52.010;5.420;2023-01-09T09:34:05;99603.38;;;6.55;100.00
72110;BME280;59983;52.010;5.420;2023-01-09T09:36:31;99613.88;;;6.60;100.00
72110;BME280;59983;52.010;5.420;2023-01-09T09:38:58;99621.19;;;6.60;100.00
72110;BME280;59983;52.010;5.420;2023-01-09T09:44:38;99633.97;;;6.63;100.00
72110;BME280;59983;52.010;5.420;2023-01-09T09:55:50;99674.13;;;6.68;100.00
72110;BME280;59983;52.010;5.420;2023-01-09T09:58:38;99678.38;;;6.69;100.00
72110;BME280;59983;52.010;5.420;2023-01-09T10:01:07;99684.19;;;6.71;100.00
72110;BME280;59983;52.010;5.420;2023-01-09T10:03:54;99698.91;;;6.73;100.00
72110;BME280;59983;52.010;5.420;2023-01-09T10:11:36;99712.09;;;6.78;100.00
72110;BME280;59983;52.010;5.420;2023-01-09T10:14:05;99712.56;;;6.80;100.00
72110;BME280;59983;52.010;5.420;2023-01-09T10:22:13;99722.13;;;6.94;100.00
72110;BME280;59983;52.010;5.420;2023-01-09T10:25:10;99731.06;;;6.98;100.00
72110;BME280;59983;52.010;5.420;2023-01-09T10:36:07;99750.72;;;7.46;100.00
72110;BME280;59983;52.010;5.420;2023-01-09T10:38:42;99756.28;;;7.53;100.00
72110;BME280;59983;52.010;5.420;2023-01-09T10:44:26;99757.06;;;7.37;100.00
72110;BME280;59983;52.010;5.420;2023-01-09T10:46:59;99775.09;;;7.33;100.00
72110;BME280;59983;52.010;5.420;2023-01-09T10:49:27;99769.34;;;7.35;100.00
72110;BME280;59983;52.010;5.420;2023-01-09T10:52:32;99789.28;;;7.30;100.00
72110;BME280;59983;52.010;5.420;2023-01-09T10:58:01;99779.34;;;7.19;100.00
72110;BME280;59983;52.010;5.420;2023-01-09T11:00:36;99784.41;;;7.20;100.00
72110;BME280;59983;52.010;5.420;2023-01-09T11:03:04;99779.44;;;7.22;100.00
72110;BME280;59983;52.010;5.420;2023-01-09T11:05:30;99784.94;;;7.26;100.00
72110;BME280;59983;52.010;5.420;2023-01-09T11:10:55;99785.88;;;7.49;100.00
72110;BME280;59983;52.010;5.420;2023-01-09T11:13:28;99801.44;;;7.72;100.00
72110;BME280;59983;52.010;5.420;2023-01-09T11:16:04;99808.38;;;7.88;100.00
72110;BME280;59983;52.010;5.420;2023-01-09T11:18:33;99816.13;;;7.90;100.00
72110;BME280;59983;52.010;5.420;2023-01-09T11:23:39;99821.78;;;7.85;100.00
72110;BME280;59983;52.010;5.420;2023-01-09T11:26:20;99823.00;;;7.87;100.00
72110;BME280;59983;52.010;5.420;2023-01-09T11:29:10;99824.47;;;7.85;100.00
72110;BME280;59983;52.010;5.420;2023-01-09T11:31:38;99818.66;;;7.83;100.00
72110;BME280;59983;52.010;5.420;2023-01-09T11:34:14;99829.44;;;7.83;100.00
72110;BME280;59983;52.010;5.420;2023-01-09T11:36:41;99835.91;;;7.78;100.00
72110;BME280;59983;52.010;5.420;2023-01-09T11:39:21;99841.38;;;7.66;100.00
72110;BME280;59983;52.010;5.420;2023-01-09T11:41:53;99838.63;;;7.62;100.00
72110;BME280;59983;52.010;5.420;2023-01-09T11:44:22;99840.53;;;7.62;100.00
72110;BME280;59983;52.010;5.420;2023-01-09T11:46:49;99831.56;;;7.74;100.00
72110;BME280;59983;52.010;5.420;2023-01-09T11:51:43;99842.31;;;7.89;100.00
72110;BME280;59983;52.010;5.420;2023-01-09T11:54:27;99853.22;;;7.77;100.00
72110;BME280;59983;52.010;5.420;2023-01-09T11:56:55;99850.00;;;7.72;100.00
72110;BME280;59983;52.010;5.420;2023-01-09T11:59:25;99846.88;;;7.70;100.00
72110;BME280;59983;52.010;5.420;2023-01-09T12:04:48;99864.81;;;7.78;100.00
72110;BME280;59983;52.010;5.420;2023-01-09T12:07:39;99858.00;;;8.00;100.00
72110;BME280;59983;52.010;5.420;2023-01-09T12:18:56;99860.25;;;8.33;100.00
72110;BME280;59983;52.010;5.420;2023-01-09T12:24:16;99867.28;;;8.18;100.00
72110;BME280;59983;52.010;5.420;2023-01-09T12:37:44;99861.50;;;8.19;100.00
72110;BME280;59983;52.010;5.420;2023-01-09T12:43:22;99899.16;;;8.12;100.00
72110;BME280;59983;52.010;5.420;2023-01-09T12:51:30;99891.88;;;7.97;100.00
72110;BME280;59983;52.010;5.420;2023-01-09T12:54:11;99892.66;;;7.98;100.00
72110;BME280;59983;52.010;5.420;2023-01-09T12:56:48;99886.38;;;7.93;100.00
72110;BME280;59983;52.010;5.420;2023-01-09T12:59:29;99890.66;;;7.94;100.00
72110;BME280;59983;52.010;5.420;2023-01-09T13:02:10;99897.53;;;7.92;100.00
72110;BME280;59983;52.010;5.420;2023-01-09T13:04:57;99901.38;;;7.91;100.00
72110;BME280;59983;52.010;5.420;2023-01-09T13:07:29;99895.13;;;7.87;100.00
72110;BME280;59983;52.010;5.420;2023-01-09T13:10:05;99897.81;;;7.87;100.00
72110;BME280;59983;52.010;5.420;2023-01-09T13:12:37;99899.28;;;7.84;100.00
72110;BME280;59983;52.010;5.420;2023-01-09T13:15:29;99912.00;;;7.84;100.00
72110;BME280;59983;52.010;5.420;2023-01-09T13:18:04;99916.63;;;7.83;100.00
72110;BME280;59983;52.010;5.420;2023-01-09T13:20:47;99916.63;;;7.83;100.00
72110;BME280;59983;52.010;5.420;2023-01-09T13:23:32;99927.34;;;7.80;100.00
72110;BME280;59983;52.010;5.420;2023-01-09T13:26:02;99933.75;;;7.75;100.00
72110;BME280;59983;52.010;5.420;2023-01-09T13:28:34;99940.31;;;7.74;100.00
72110;BME280;59983;52.010;5.420;2023-01-09T13:34:03;99949.97;;;7.75;100.00
72110;BME280;59983;52.010;5.420;2023-01-09T13:36:37;99944.66;;;7.79;100.00
72110;BME280;59983;52.010;5.420;2023-01-09T13:39:05;99958.59;;;7.81;100.00
72110;BME280;59983;52.010;5.420;2023-01-09T13:41:32;99948.16;;;7.79;100.00
72110;BME280;59983;52.010;5.420;2023-01-09T13:46:46;99970.69;;;7.71;100.00
72110;BME280;59983;52.010;5.420;2023-01-09T13:57:34;99979.00;;;7.50;100.00
72110;BME280;59983;52.010;5.420;2023-01-09T14:07:59;99997.03;;;7.46;100.00
72110;BME280;59983;52.010;5.420;2023-01-09T14:12:58;100009.03;;;7.49;100.00
72110;BME280;59983;52.010;5.420;2023-01-09T14:15:29;100009.81;;;7.49;100.00
72110;BME280;59983;52.010;5.420;2023-01-09T14:17:59;100026.88;;;7.81;100.00
72110;BME280;59983;52.010;5.420;2023-01-09T14:20:35;100030.41;;;8.13;100.00
72110;BME280;59983;52.010;5.420;2023-01-09T14:23:03;100028.75;;;8.24;100.00
72110;BME280;59983;52.010;5.420;2023-01-09T14:25:52;100036.69;;;8.49;100.00
72110;BME280;59983;52.010;5.420;2023-01-09T14:28:39;100046.19;;;8.43;100.00
72110;BME280;59983;52.010;5.420;2023-01-09T14:31:07;100054.00;;;8.16;100.00
72110;BME280;59983;52.010;5.420;2023-01-09T14:33:35;100059.66;;;7.95;100.00
72110;BME280;59983;52.010;5.420;2023-01-09T14:36:18;100068.84;;;7.79;100.00
72110;BME280;59983;52.010;5.420;2023-01-09T14:38:56;100079.31;;;7.68;100.00
72110;BME280;59983;52.010;5.420;2023-01-09T14:45:06;100119.16;;;7.59;100.00
72110;BME280;59983;52.010;5.420;2023-01-09T14:47:47;100113.34;;;7.57;100.00
72110;BME280;59983;52.010;5.420;2023-01-09T14:55:58;100131.00;;;7.54;100.00
72110;BME280;59983;52.010;5.420;2023-01-09T14:58:28;100136.28;;;7.51;100.00
72110;BME280;59983;52.010;5.420;2023-01-09T15:03:37;100148.56;;;7.48;100.00
72110;BME280;59983;52.010;5.420;2023-01-09T15:06:19;100150.81;;;7.46;100.00
72110;BME280;59983;52.010;5.420;2023-01-09T15:08:53;100156.91;;;7.43;100.00
72110;BME280;59983;52.010;5.420;2023-01-09T15:11:21;100162.50;;;7.38;100.00
72110;BME280;59983;52.010;5.420;2023-01-09T15:13:49;100166.69;;;7.35;100.00
72110;BME280;59983;52.010;5.420;2023-01-09T15:16:21;100173.09;;;7.31;100.00
72110;BME280;59983;52.010;5.420;2023-01-09T15:18:51;100177.69;;;7.30;100.00
72110;BME280;59983;52.010;5.420;2023-01-09T15:21:23;100185.25;;;7.25;100.00
72110;BME280;59983;52.010;5.420;2023-01-09T15:23:50;100195.81;;;7.18;100.00
72110;BME280;59983;52.010;5.420;2023-01-09T15:26:28;100209.84;;;7.11;100.00
72110;BME280;59983;52.010;5.420;2023-01-09T15:29:00;100209.63;;;7.04;100.00
72110;BME280;59983;52.010;5.420;2023-01-09T15:31:28;100210.41;;;7.04;100.00
72110;BME280;59983;52.010;5.420;2023-01-09T15:33:55;100224.91;;;7.00;100.00